createdAt,value
2016-12-06T04:00:30.495Z,1030.6
2016-12-06T04:00:56.208Z,1030.54
2016-12-06T04:01:21.771Z,1030.56
2016-12-06T04:01:47.319Z,1030.57
2016-12-06T04:02:12.859Z,1030.61
2016-12-06T04:02:38.398Z,1030.59
2016-12-06T04:03:04.003Z,1030.63
2016-12-06T04:03:29.565Z,1030.61
2016-12-06T04:03:55.100Z,1030.64
2016-12-06T04:04:20.681Z,1030.64
2016-12-06T04:04:46.366Z,1030.67
2016-12-06T04:05:11.899Z,1030.65
2016-12-06T04:05:37.427Z,1030.68
2016-12-06T04:06:02.977Z,1030.66
2016-12-06T04:06:28.519Z,1030.65
2016-12-06T04:06:54.136Z,1030.64
2016-12-06T04:07:19.729Z,1030.63
2016-12-06T04:07:45.274Z,1030.6
2016-12-06T04:08:10.892Z,1030.64
2016-12-06T04:08:36.528Z,1030.62
2016-12-06T04:09:02.083Z,1030.62
2016-12-06T04:09:27.715Z,1030.62
2016-12-06T04:09:53.391Z,1030.61
2016-12-06T04:10:18.945Z,1030.63
2016-12-06T04:10:44.494Z,1030.61
2016-12-06T04:11:10.069Z,1030.66
2016-12-06T04:11:35.739Z,1030.67
2016-12-06T04:12:01.289Z,1030.65
2016-12-06T04:12:26.983Z,1030.65
2016-12-06T04:12:52.527Z,1030.62
2016-12-06T04:13:18.073Z,1030.62
2016-12-06T04:13:43.611Z,1030.64
2016-12-06T04:14:09.153Z,1030.64
2016-12-06T04:14:34.812Z,1030.62
2016-12-06T04:15:00.362Z,1030.65
2016-12-06T04:15:25.953Z,1030.63
2016-12-06T04:15:51.492Z,1030.68
2016-12-06T04:16:17.175Z,1030.62
2016-12-06T04:16:42.780Z,1030.61
2016-12-06T04:17:08.300Z,1030.64
2016-12-06T04:17:33.892Z,1030.64
2016-12-06T04:17:59.464Z,1030.69
2016-12-06T04:18:25.017Z,1030.69
2016-12-06T04:18:50.616Z,1030.72
2016-12-06T04:19:16.151Z,1030.71
2016-12-06T04:19:41.793Z,1030.71
2016-12-06T04:20:07.374Z,1030.68
2016-12-06T04:20:33.004Z,1030.69
2016-12-06T04:20:58.549Z,1030.73
2016-12-06T04:21:24.084Z,1030.72
2016-12-06T04:21:49.662Z,1030.69
2016-12-06T04:22:15.209Z,1030.66
2016-12-06T04:22:40.808Z,1030.66
2016-12-06T04:23:06.455Z,1030.67
2016-12-06T04:23:32.030Z,1030.68
2016-12-06T04:23:57.565Z,1030.71
2016-12-06T04:25:16.295Z,1030.71
2016-12-06T04:26:36.815Z,1030.72
2016-12-06T04:28:44.055Z,1030.7
2016-12-06T04:29:09.592Z,1030.74
2016-12-06T04:29:35.164Z,1030.7
2016-12-06T04:30:00.716Z,1030.72
2016-12-06T04:30:26.320Z,1030.67
2016-12-06T04:30:51.939Z,1030.68
2016-12-06T04:31:17.491Z,1030.66
2016-12-06T04:31:43.082Z,1030.65
2016-12-06T04:32:08.630Z,1030.64
2016-12-06T04:32:34.268Z,1030.69
2016-12-06T04:32:59.821Z,1030.68
2016-12-06T04:33:25.372Z,1030.7
2016-12-06T04:33:51.000Z,1030.66
2016-12-06T04:34:16.560Z,1030.69
2016-12-06T04:34:42.167Z,1030.71
2016-12-06T04:35:07.742Z,1030.71
2016-12-06T04:35:33.370Z,1030.73
2016-12-06T04:35:58.920Z,1030.73
2016-12-06T04:36:24.487Z,1030.73
2016-12-06T04:36:50.068Z,1030.72
2016-12-06T04:37:15.617Z,1030.71
2016-12-06T04:37:41.209Z,1030.72
2016-12-06T04:38:06.766Z,1030.72
2016-12-06T04:38:32.361Z,1030.64
2016-12-06T04:38:57.913Z,1030.69
2016-12-06T04:39:24.161Z,1030.64
2016-12-06T04:39:49.689Z,1030.64
2016-12-06T04:40:15.247Z,1030.67
2016-12-06T04:40:40.788Z,1030.65
2016-12-06T04:41:06.380Z,1030.63
2016-12-06T04:41:32.051Z,1030.64
2016-12-06T04:41:57.614Z,1030.67
2016-12-06T04:42:23.155Z,1030.61
2016-12-06T04:42:48.676Z,1030.62
2016-12-06T04:43:14.211Z,1030.62
2016-12-06T04:43:39.756Z,1030.66
2016-12-06T04:44:05.323Z,1030.65
2016-12-06T04:44:30.890Z,1030.66
2016-12-06T04:44:56.438Z,1030.67
2016-12-06T04:45:22.004Z,1030.68
2016-12-06T04:45:47.547Z,1030.68
2016-12-06T04:46:13.125Z,1030.69
2016-12-06T04:46:38.753Z,1030.68
2016-12-06T04:47:04.308Z,1030.7
2016-12-06T04:47:30.009Z,1030.68
2016-12-06T04:47:55.562Z,1030.68
2016-12-06T04:48:21.118Z,1030.67
2016-12-06T04:48:46.697Z,1030.71
2016-12-06T04:49:12.334Z,1030.72
2016-12-06T04:49:37.878Z,1030.76
2016-12-06T04:50:03.425Z,1030.71
2016-12-06T04:50:29.047Z,1030.76
2016-12-06T04:50:54.608Z,1030.82
2016-12-06T04:51:20.156Z,1030.79
2016-12-06T04:51:45.733Z,1030.81
2016-12-06T04:52:11.322Z,1030.78
2016-12-06T04:52:37.011Z,1030.76
2016-12-06T04:53:02.569Z,1030.81
2016-12-06T04:53:28.138Z,1030.77
2016-12-06T04:53:53.677Z,1030.8
2016-12-06T04:54:19.196Z,1030.76
2016-12-06T04:54:44.731Z,1030.75
2016-12-06T04:55:10.252Z,1030.72
2016-12-06T04:55:35.826Z,1030.78
2016-12-06T04:56:01.391Z,1030.7
2016-12-06T04:56:26.962Z,1030.73
2016-12-06T04:56:52.510Z,1030.77
2016-12-06T04:57:18.057Z,1030.71
2016-12-06T04:57:43.593Z,1030.73
2016-12-06T04:58:09.172Z,1030.67
2016-12-06T04:58:34.728Z,1030.65
2016-12-06T04:59:00.285Z,1030.69
2016-12-06T04:59:25.867Z,1030.67
2016-12-06T04:59:51.407Z,1030.67
2016-12-06T05:00:16.944Z,1030.66
2016-12-06T05:00:42.496Z,1030.7
2016-12-06T05:01:08.026Z,1030.72
2016-12-06T05:01:33.578Z,1030.71
2016-12-06T05:01:59.129Z,1030.67
2016-12-06T05:02:24.829Z,1030.7
2016-12-06T05:02:50.385Z,1030.7
2016-12-06T05:03:15.920Z,1030.72
2016-12-06T05:03:41.609Z,1030.75
2016-12-06T05:04:07.139Z,1030.75
2016-12-06T05:04:32.841Z,1030.77
2016-12-06T05:04:58.464Z,1030.81
2016-12-06T05:05:24.022Z,1030.83
2016-12-06T05:05:49.564Z,1030.84
2016-12-06T05:06:15.121Z,1030.82
2016-12-06T05:06:40.683Z,1030.85
2016-12-06T05:07:06.234Z,1030.83
2016-12-06T05:07:31.790Z,1030.82
2016-12-06T05:07:57.371Z,1030.86
2016-12-06T05:08:22.940Z,1030.8
2016-12-06T05:08:48.505Z,1030.81
2016-12-06T05:09:14.067Z,1030.85
2016-12-06T05:09:39.617Z,1030.78
2016-12-06T05:10:05.161Z,1030.77
2016-12-06T05:10:30.705Z,1030.78
2016-12-06T05:10:56.312Z,1030.8
2016-12-06T05:11:21.860Z,1030.77
2016-12-06T05:11:47.395Z,1030.76
2016-12-06T05:12:12.965Z,1030.79
2016-12-06T05:12:38.546Z,1030.75
2016-12-06T05:13:04.160Z,1030.79
2016-12-06T05:13:29.731Z,1030.78
2016-12-06T05:13:55.315Z,1030.77
2016-12-06T05:14:20.955Z,1030.77
2016-12-06T05:14:46.523Z,1030.81
2016-12-06T05:15:12.245Z,1030.81
2016-12-06T05:15:37.919Z,1030.87
2016-12-06T05:16:03.528Z,1030.87
2016-12-06T05:16:29.080Z,1030.87
2016-12-06T05:16:54.675Z,1030.92
2016-12-06T05:17:20.228Z,1030.86
2016-12-06T05:17:45.795Z,1030.89
2016-12-06T05:18:11.347Z,1030.85
2016-12-06T05:18:37.000Z,1030.84
2016-12-06T05:19:02.554Z,1030.86
2016-12-06T05:19:28.132Z,1030.89
2016-12-06T05:19:53.683Z,1030.88
2016-12-06T05:20:19.240Z,1030.95
2016-12-06T05:20:44.841Z,1030.98
2016-12-06T05:21:10.401Z,1030.98
2016-12-06T05:21:36.189Z,1031.02
2016-12-06T05:22:01.742Z,1030.96
2016-12-06T05:22:27.289Z,1030.98
2016-12-06T05:22:52.944Z,1030.93
2016-12-06T05:23:18.493Z,1030.91
2016-12-06T05:23:44.049Z,1030.87
2016-12-06T05:24:09.614Z,1030.91
2016-12-06T05:24:35.170Z,1030.86
2016-12-06T05:25:00.746Z,1030.87
2016-12-06T05:25:26.341Z,1030.91
2016-12-06T05:25:51.900Z,1030.93
2016-12-06T05:26:17.453Z,1030.94
2016-12-06T05:26:43.145Z,1030.99
2016-12-06T05:27:08.691Z,1031.01
2016-12-06T05:27:34.243Z,1030.99
2016-12-06T05:27:59.798Z,1030.98
2016-12-06T05:28:25.359Z,1030.95
2016-12-06T05:28:51.017Z,1030.95
2016-12-06T05:29:16.598Z,1030.97
2016-12-06T05:29:42.292Z,1030.95
2016-12-06T05:30:07.840Z,1030.93
2016-12-06T05:30:33.398Z,1030.95
2016-12-06T05:30:58.971Z,1031
2016-12-06T05:31:24.523Z,1030.96
2016-12-06T05:31:50.089Z,1031.01
2016-12-06T05:32:15.652Z,1031.01
2016-12-06T05:32:41.222Z,1031.08
2016-12-06T05:33:06.893Z,1031.04
2016-12-06T05:33:32.435Z,1031.05
2016-12-06T05:33:57.995Z,1031.1
2016-12-06T05:34:23.545Z,1031.05
2016-12-06T05:34:49.319Z,1031.01
2016-12-06T05:35:14.874Z,1031.01
2016-12-06T05:35:40.437Z,1031
2016-12-06T05:36:05.999Z,1030.99
2016-12-06T05:36:31.536Z,1031.05
2016-12-06T05:36:57.119Z,1031.02
2016-12-06T05:37:22.675Z,1031.08
2016-12-06T05:37:48.315Z,1031.02
2016-12-06T05:38:13.917Z,1031.06
2016-12-06T05:38:39.477Z,1031.04
2016-12-06T05:39:58.060Z,1031.04
2016-12-06T05:41:49.077Z,1031.1
2016-12-06T05:43:56.383Z,1031.09
2016-12-06T05:44:22.044Z,1031.07
2016-12-06T05:44:47.597Z,1031.08
2016-12-06T05:45:13.200Z,1031.06
2016-12-06T05:45:39.031Z,1031.08
2016-12-06T05:46:04.592Z,1031.1
2016-12-06T05:46:30.147Z,1031.15
2016-12-06T05:46:55.713Z,1031.12
2016-12-06T05:47:21.309Z,1031.15
2016-12-06T05:47:46.880Z,1031.17
2016-12-06T05:48:12.420Z,1031.16
2016-12-06T05:48:38.088Z,1031.16
2016-12-06T05:49:03.657Z,1031.2
2016-12-06T05:49:29.221Z,1031.18
2016-12-06T05:49:54.786Z,1031.19
2016-12-06T05:50:20.375Z,1031.19
2016-12-06T05:50:45.924Z,1031.22
2016-12-06T05:51:11.586Z,1031.22
2016-12-06T05:51:37.175Z,1031.19
2016-12-06T05:52:02.732Z,1031.22
2016-12-06T05:53:21.367Z,1031.21
2016-12-06T05:53:47.132Z,1031.23
2016-12-06T05:54:12.714Z,1031.19
2016-12-06T05:54:38.333Z,1031.19
2016-12-06T05:55:03.913Z,1031.19
2016-12-06T05:55:29.486Z,1031.19
2016-12-06T05:55:55.038Z,1031.22
2016-12-06T05:56:20.621Z,1031.16
2016-12-06T05:56:46.208Z,1031.18
2016-12-06T05:57:11.782Z,1031.17
2016-12-06T05:57:37.351Z,1031.18
2016-12-06T05:58:02.925Z,1031.15
2016-12-06T05:58:28.490Z,1031.15
2016-12-06T05:58:54.063Z,1031.1
2016-12-06T05:59:19.666Z,1031.14
2016-12-06T05:59:45.221Z,1031.14
2016-12-06T06:00:10.767Z,1031.11
2016-12-06T06:00:36.451Z,1031.14
2016-12-06T06:01:01.994Z,1031.18
2016-12-06T06:01:27.564Z,1031.16
2016-12-06T06:01:53.097Z,1031.16
2016-12-06T06:02:18.629Z,1031.17
2016-12-06T06:02:44.181Z,1031.19
2016-12-06T06:03:09.744Z,1031.19
2016-12-06T06:03:35.357Z,1031.19
2016-12-06T06:04:00.908Z,1031.24
2016-12-06T06:04:26.508Z,1031.26
2016-12-06T06:04:52.066Z,1031.27
2016-12-06T06:05:17.637Z,1031.32
2016-12-06T06:05:43.238Z,1031.34
2016-12-06T06:06:08.888Z,1031.36
2016-12-06T06:06:34.452Z,1031.36
2016-12-06T06:07:00.028Z,1031.37
2016-12-06T06:07:25.604Z,1031.35
2016-12-06T06:07:51.168Z,1031.34
2016-12-06T06:08:16.720Z,1031.32
2016-12-06T06:08:42.292Z,1031.41
2016-12-06T06:09:07.907Z,1031.32
2016-12-06T06:09:33.528Z,1031.35
2016-12-06T06:09:59.068Z,1031.39
2016-12-06T06:10:24.620Z,1031.4
2016-12-06T06:10:50.171Z,1031.4
2016-12-06T06:11:15.762Z,1031.38
2016-12-06T06:11:41.307Z,1031.42
2016-12-06T06:12:06.859Z,1031.42
2016-12-06T06:12:32.399Z,1031.44
2016-12-06T06:12:57.972Z,1031.46
2016-12-06T06:14:06.480Z,1031.47
2016-12-06T06:14:32.042Z,1031.44
2016-12-06T06:15:00.571Z,1031.46
2016-12-06T06:15:26.155Z,1031.43
2016-12-06T06:15:51.712Z,1031.44
2016-12-06T06:16:17.348Z,1031.45
2016-12-06T06:16:42.939Z,1031.42
2016-12-06T06:17:08.535Z,1031.43
2016-12-06T06:17:34.283Z,1031.44
2016-12-06T06:17:59.837Z,1031.48
2016-12-06T06:18:25.394Z,1031.44
2016-12-06T06:18:50.950Z,1031.43
2016-12-06T06:19:16.551Z,1031.41
2016-12-06T06:19:42.111Z,1031.42
2016-12-06T06:20:07.659Z,1031.37
2016-12-06T06:20:33.321Z,1031.42
2016-12-06T06:20:58.873Z,1031.38
2016-12-06T06:21:24.437Z,1031.39
2016-12-06T06:21:50.008Z,1031.39
2016-12-06T06:22:15.557Z,1031.39
2016-12-06T06:22:41.119Z,1031.37
2016-12-06T06:23:06.682Z,1031.37
2016-12-06T06:23:32.254Z,1031.4
2016-12-06T06:23:57.899Z,1031.38
2016-12-06T06:24:23.460Z,1031.39
2016-12-06T06:24:49.008Z,1031.41
2016-12-06T06:25:14.541Z,1031.39
2016-12-06T06:25:40.080Z,1031.43
2016-12-06T06:26:05.643Z,1031.45
2016-12-06T06:26:31.276Z,1031.43
2016-12-06T06:26:56.847Z,1031.44
2016-12-06T06:27:22.418Z,1031.46
2016-12-06T06:27:48.040Z,1031.45
2016-12-06T06:28:13.634Z,1031.48
2016-12-06T06:28:39.191Z,1031.47
2016-12-06T06:29:04.771Z,1031.47
2016-12-06T06:29:30.321Z,1031.48
2016-12-06T06:29:55.885Z,1031.46
2016-12-06T06:30:21.443Z,1031.47
2016-12-06T06:30:47.003Z,1031.45
2016-12-06T06:31:12.593Z,1031.5
2016-12-06T06:31:38.162Z,1031.49
2016-12-06T06:32:03.733Z,1031.47
2016-12-06T06:32:29.293Z,1031.52
2016-12-06T06:32:54.856Z,1031.55
2016-12-06T06:33:20.432Z,1031.52
2016-12-06T06:33:45.997Z,1031.54
2016-12-06T06:34:11.571Z,1031.54
2016-12-06T06:34:37.131Z,1031.53
2016-12-06T06:35:02.704Z,1031.56
2016-12-06T06:35:28.431Z,1031.6
2016-12-06T06:35:53.988Z,1031.6
2016-12-06T06:36:19.541Z,1031.62
2016-12-06T06:36:45.192Z,1031.58
2016-12-06T06:37:10.770Z,1031.63
2016-12-06T06:37:36.358Z,1031.59
2016-12-06T06:38:01.926Z,1031.65
2016-12-06T06:38:27.481Z,1031.6
2016-12-06T06:38:53.046Z,1031.6
2016-12-06T06:39:18.612Z,1031.59
2016-12-06T06:39:44.173Z,1031.57
2016-12-06T06:40:09.734Z,1031.59
2016-12-06T06:40:35.431Z,1031.61
2016-12-06T06:41:01.000Z,1031.63
2016-12-06T06:41:26.549Z,1031.6
2016-12-06T06:41:52.110Z,1031.59
2016-12-06T06:42:17.660Z,1031.6
2016-12-06T06:42:43.206Z,1031.59
2016-12-06T06:43:08.748Z,1031.56
2016-12-06T06:43:34.365Z,1031.56
2016-12-06T06:43:59.913Z,1031.55
2016-12-06T06:44:25.473Z,1031.57
2016-12-06T06:44:51.025Z,1031.54
2016-12-06T06:45:16.578Z,1031.56
2016-12-06T06:45:42.147Z,1031.58
2016-12-06T06:46:07.714Z,1031.55
2016-12-06T06:46:33.315Z,1031.61
2016-12-06T06:46:58.903Z,1031.6
2016-12-06T06:47:24.460Z,1031.63
2016-12-06T06:47:50.002Z,1031.62
2016-12-06T06:48:15.547Z,1031.61
2016-12-06T06:48:41.076Z,1031.63
2016-12-06T06:49:06.680Z,1031.64
2016-12-06T06:49:32.228Z,1031.66
2016-12-06T06:49:57.775Z,1031.65
2016-12-06T06:50:23.327Z,1031.7
2016-12-06T06:50:48.886Z,1031.69
2016-12-06T06:51:14.465Z,1031.76
2016-12-06T06:51:40.053Z,1031.8
2016-12-06T06:52:05.606Z,1031.83
2016-12-06T06:52:31.313Z,1031.8
2016-12-06T06:52:56.867Z,1031.83
2016-12-06T06:53:22.433Z,1031.84
2016-12-06T06:53:48.021Z,1031.86
2016-12-06T06:54:13.618Z,1031.88
2016-12-06T06:54:39.188Z,1031.85
2016-12-06T06:55:04.887Z,1031.84
2016-12-06T06:55:30.491Z,1031.85
2016-12-06T06:55:56.044Z,1031.87
2016-12-06T06:56:21.598Z,1031.82
2016-12-06T06:56:47.152Z,1031.83
2016-12-06T06:57:12.711Z,1031.84
2016-12-06T06:57:38.260Z,1031.78
2016-12-06T06:58:03.810Z,1031.81
2016-12-06T06:58:29.373Z,1031.8
2016-12-06T06:58:54.904Z,1031.75
2016-12-06T06:59:20.438Z,1031.75
2016-12-06T06:59:45.972Z,1031.79
2016-12-06T07:01:04.508Z,1031.74
2016-12-06T07:01:30.059Z,1031.77
2016-12-06T07:01:55.610Z,1031.73
2016-12-06T07:02:21.290Z,1031.76
2016-12-06T07:02:46.889Z,1031.74
2016-12-06T07:03:12.446Z,1031.74
2016-12-06T07:03:38.069Z,1031.77
2016-12-06T07:04:03.725Z,1031.8
2016-12-06T07:04:29.286Z,1031.76
2016-12-06T07:04:54.841Z,1031.81
2016-12-06T07:05:20.542Z,1031.82
2016-12-06T07:05:46.105Z,1031.82
2016-12-06T07:06:11.670Z,1031.78
2016-12-06T07:06:37.270Z,1031.82
2016-12-06T07:07:02.828Z,1031.82
2016-12-06T07:07:28.381Z,1031.84
2016-12-06T07:07:53.938Z,1031.82
2016-12-06T07:08:19.521Z,1031.86
2016-12-06T07:08:45.072Z,1031.88
2016-12-06T07:09:10.639Z,1031.88
2016-12-06T07:09:36.212Z,1031.85
2016-12-06T07:10:01.771Z,1031.87
2016-12-06T07:10:27.855Z,1031.87
2016-12-06T07:10:53.406Z,1031.87
2016-12-06T07:11:18.960Z,1031.87
2016-12-06T07:12:32.573Z,1031.87
2016-12-06T07:12:58.155Z,1031.86
2016-12-06T07:13:23.691Z,1031.85
2016-12-06T07:13:49.281Z,1031.85
2016-12-06T07:14:14.854Z,1031.85
2016-12-06T07:14:40.423Z,1031.86
2016-12-06T07:15:05.974Z,1031.84
2016-12-06T07:15:31.691Z,1031.88
2016-12-06T07:15:57.330Z,1031.9
2016-12-06T07:16:22.935Z,1031.89
2016-12-06T07:16:48.638Z,1031.89
2016-12-06T07:17:14.231Z,1031.88
2016-12-06T07:17:39.782Z,1031.91
2016-12-06T07:18:05.409Z,1031.88
2016-12-06T07:18:30.980Z,1031.9
2016-12-06T07:18:56.528Z,1031.9
2016-12-06T07:19:22.078Z,1031.93
2016-12-06T07:19:47.621Z,1031.97
2016-12-06T07:20:13.171Z,1031.94
2016-12-06T07:20:38.745Z,1031.93
2016-12-06T07:21:04.264Z,1031.95
2016-12-06T07:21:29.796Z,1031.89
2016-12-06T07:21:55.342Z,1031.94
2016-12-06T07:22:20.893Z,1031.95
2016-12-06T07:22:46.526Z,1031.93
2016-12-06T07:23:12.100Z,1031.94
2016-12-06T07:23:37.710Z,1031.93
2016-12-06T07:24:03.363Z,1031.94
2016-12-06T07:24:28.924Z,1031.91
2016-12-06T07:24:54.461Z,1031.93
2016-12-06T07:25:20.002Z,1031.95
2016-12-06T07:25:45.566Z,1031.94
2016-12-06T07:26:11.181Z,1031.89
2016-12-06T07:26:36.735Z,1031.91
2016-12-06T07:27:02.601Z,1031.9
2016-12-06T07:27:28.171Z,1031.92
2016-12-06T07:27:53.780Z,1031.88
2016-12-06T07:28:19.401Z,1031.9
2016-12-06T07:28:44.991Z,1031.88
2016-12-06T07:29:10.558Z,1031.89
2016-12-06T07:29:36.126Z,1031.87
2016-12-06T07:30:01.702Z,1031.9
2016-12-06T07:30:59.788Z,1031.92
2016-12-06T07:32:13.181Z,1031.95
2016-12-06T07:34:20.418Z,1031.98
2016-12-06T07:34:45.994Z,1031.99
2016-12-06T07:35:11.579Z,1032
2016-12-06T07:36:25.049Z,1031.99
2016-12-06T07:36:50.671Z,1032
2016-12-06T07:37:16.225Z,1032.01
2016-12-06T07:37:41.776Z,1031.96
2016-12-06T07:38:07.316Z,1031.95
2016-12-06T07:38:32.847Z,1031.97
2016-12-06T07:38:58.406Z,1031.96
2016-12-06T07:39:24.010Z,1031.96
2016-12-06T07:39:49.553Z,1031.99
2016-12-06T07:40:15.081Z,1031.95
2016-12-06T07:40:40.608Z,1031.94
2016-12-06T07:41:06.200Z,1031.97
2016-12-06T07:41:31.780Z,1032.03
2016-12-06T07:41:57.342Z,1031.99
2016-12-06T07:42:23.068Z,1031.98
2016-12-06T07:42:48.657Z,1032
2016-12-06T07:43:14.203Z,1032.01
2016-12-06T07:43:39.755Z,1031.98
2016-12-06T07:44:05.472Z,1032.01
2016-12-06T07:44:31.009Z,1032.06
2016-12-06T07:44:56.568Z,1032.02
2016-12-06T07:45:22.248Z,1032.04
2016-12-06T07:45:47.824Z,1032.05
2016-12-06T07:46:13.390Z,1032.08
2016-12-06T07:46:38.963Z,1032.06
2016-12-06T07:47:04.527Z,1032.06
2016-12-06T07:47:30.142Z,1032.1
2016-12-06T07:47:55.771Z,1032.1
2016-12-06T07:48:21.411Z,1032.1
2016-12-06T07:48:47.050Z,1032.07
2016-12-06T07:49:12.611Z,1032.07
2016-12-06T07:49:38.136Z,1032.1
2016-12-06T07:50:03.773Z,1032.13
2016-12-06T07:50:29.334Z,1032.06
2016-12-06T07:50:54.865Z,1032.07
2016-12-06T07:51:20.401Z,1032.08
2016-12-06T07:51:46.049Z,1032.1
2016-12-06T07:52:11.654Z,1032.08
2016-12-06T07:52:37.229Z,1032.11
2016-12-06T07:53:02.786Z,1032.07
2016-12-06T07:53:28.332Z,1032.09
2016-12-06T07:53:53.879Z,1032.11
2016-12-06T07:54:19.441Z,1032.1
2016-12-06T07:54:44.999Z,1032.09
2016-12-06T07:55:10.544Z,1032.09
2016-12-06T07:55:36.174Z,1032.1
2016-12-06T07:56:01.790Z,1032.1
2016-12-06T07:56:27.335Z,1032.12
2016-12-06T07:56:52.951Z,1032.08
2016-12-06T07:57:18.568Z,1032.13
2016-12-06T07:57:44.127Z,1032.14
2016-12-06T07:58:09.638Z,1032.13
2016-12-06T07:58:35.179Z,1032.14
2016-12-06T07:59:00.749Z,1032.18
2016-12-06T07:59:26.308Z,1032.17
2016-12-06T07:59:51.862Z,1032.16
2016-12-06T08:00:17.412Z,1032.21
2016-12-06T08:00:43.020Z,1032.19
2016-12-06T08:01:08.553Z,1032.19
2016-12-06T08:01:34.150Z,1032.19
2016-12-06T08:01:59.768Z,1032.2
2016-12-06T08:02:25.294Z,1032.21
2016-12-06T08:02:50.874Z,1032.23
2016-12-06T08:03:16.502Z,1032.16
2016-12-06T08:03:42.082Z,1032.2
2016-12-06T08:04:07.623Z,1032.19
2016-12-06T08:04:33.195Z,1032.21
2016-12-06T08:04:58.737Z,1032.18
2016-12-06T08:05:24.294Z,1032.19
2016-12-06T08:05:49.832Z,1032.17
2016-12-06T08:06:15.453Z,1032.2
2016-12-06T08:06:40.997Z,1032.24
2016-12-06T08:07:06.536Z,1032.23
2016-12-06T08:07:32.169Z,1032.2
2016-12-06T08:07:57.905Z,1032.23
2016-12-06T08:08:23.454Z,1032.25
2016-12-06T08:08:49.005Z,1032.24
2016-12-06T08:09:14.543Z,1032.27
2016-12-06T08:09:40.123Z,1032.27
2016-12-06T08:10:05.686Z,1032.27
2016-12-06T08:10:31.326Z,1032.28
2016-12-06T08:10:56.898Z,1032.26
2016-12-06T08:11:22.673Z,1032.23
2016-12-06T08:11:48.243Z,1032.28
2016-12-06T08:12:13.809Z,1032.26
2016-12-06T08:12:39.378Z,1032.28
2016-12-06T08:13:04.948Z,1032.26
2016-12-06T08:13:30.507Z,1032.3
2016-12-06T08:13:56.073Z,1032.27
2016-12-06T08:14:21.653Z,1032.29
2016-12-06T08:14:47.235Z,1032.29
2016-12-06T08:15:12.787Z,1032.29
2016-12-06T08:15:38.357Z,1032.32
2016-12-06T08:16:03.930Z,1032.28
2016-12-06T08:16:29.457Z,1032.33
2016-12-06T08:16:55.067Z,1032.35
2016-12-06T08:17:20.621Z,1032.35
2016-12-06T08:17:46.174Z,1032.36
2016-12-06T08:18:11.747Z,1032.39
2016-12-06T08:18:37.305Z,1032.41
2016-12-06T08:19:02.868Z,1032.4
2016-12-06T08:19:28.445Z,1032.4
2016-12-06T08:19:54.008Z,1032.38
2016-12-06T08:20:19.570Z,1032.41
2016-12-06T08:20:45.195Z,1032.43
2016-12-06T08:21:10.817Z,1032.45
2016-12-06T08:21:36.377Z,1032.45
2016-12-06T08:22:01.944Z,1032.43
2016-12-06T08:22:27.483Z,1032.44
2016-12-06T08:22:53.052Z,1032.45
2016-12-06T08:23:18.609Z,1032.42
2016-12-06T08:23:44.175Z,1032.41
2016-12-06T08:24:09.731Z,1032.43
2016-12-06T08:24:35.280Z,1032.45
2016-12-06T08:25:00.830Z,1032.42
2016-12-06T08:25:26.404Z,1032.43
2016-12-06T08:25:51.970Z,1032.45
2016-12-06T08:26:17.549Z,1032.42
2016-12-06T08:26:43.128Z,1032.41
2016-12-06T08:27:08.672Z,1032.47
2016-12-06T08:27:34.234Z,1032.43
2016-12-06T08:27:59.890Z,1032.46
2016-12-06T08:28:25.478Z,1032.46
2016-12-06T08:28:51.032Z,1032.46
2016-12-06T08:29:16.589Z,1032.47
2016-12-06T08:29:42.150Z,1032.49
2016-12-06T08:30:07.714Z,1032.49
2016-12-06T08:30:33.270Z,1032.48
2016-12-06T08:30:58.830Z,1032.52
2016-12-06T08:31:24.402Z,1032.51
2016-12-06T08:31:49.950Z,1032.51
2016-12-06T08:32:15.493Z,1032.51
2016-12-06T08:32:41.042Z,1032.54
2016-12-06T08:33:06.608Z,1032.49
2016-12-06T08:33:32.160Z,1032.52
2016-12-06T08:33:57.740Z,1032.52
2016-12-06T08:34:23.257Z,1032.55
2016-12-06T08:34:48.809Z,1032.55
2016-12-06T08:35:14.334Z,1032.52
2016-12-06T08:35:39.877Z,1032.53
2016-12-06T08:36:05.418Z,1032.56
2016-12-06T08:36:30.975Z,1032.58
2016-12-06T08:36:56.527Z,1032.56
2016-12-06T08:37:22.123Z,1032.59
2016-12-06T08:37:47.651Z,1032.59
2016-12-06T08:38:13.218Z,1032.6
2016-12-06T08:38:38.766Z,1032.58
2016-12-06T08:39:04.328Z,1032.61
2016-12-06T08:39:29.877Z,1032.63
2016-12-06T08:39:55.449Z,1032.61
2016-12-06T08:40:20.979Z,1032.62
2016-12-06T08:40:46.550Z,1032.68
2016-12-06T08:41:12.062Z,1032.61
2016-12-06T08:41:37.609Z,1032.62
2016-12-06T08:42:03.177Z,1032.67
2016-12-06T08:42:28.809Z,1032.67
2016-12-06T08:42:54.345Z,1032.63
2016-12-06T08:43:19.888Z,1032.62
2016-12-06T08:43:45.437Z,1032.62
2016-12-06T08:44:10.968Z,1032.65
2016-12-06T08:44:36.545Z,1032.6
2016-12-06T08:45:02.086Z,1032.61
2016-12-06T08:45:27.638Z,1032.61
2016-12-06T08:45:53.304Z,1032.57
2016-12-06T08:46:18.906Z,1032.6
2016-12-06T08:46:44.461Z,1032.57
2016-12-06T08:47:10.037Z,1032.59
2016-12-06T08:47:35.629Z,1032.63
2016-12-06T08:48:01.224Z,1032.61
2016-12-06T08:48:26.802Z,1032.63
2016-12-06T08:48:52.360Z,1032.61
2016-12-06T08:49:18.067Z,1032.65
2016-12-06T08:49:43.639Z,1032.63
2016-12-06T08:50:09.216Z,1032.65
2016-12-06T08:50:34.759Z,1032.64
2016-12-06T08:51:00.425Z,1032.68
2016-12-06T08:51:26.002Z,1032.72
2016-12-06T08:51:51.647Z,1032.71
2016-12-06T08:52:17.137Z,1032.68
2016-12-06T08:52:42.717Z,1032.72
2016-12-06T08:53:08.282Z,1032.72
2016-12-06T08:53:33.859Z,1032.71
2016-12-06T08:53:59.414Z,1032.66
2016-12-06T08:54:24.968Z,1032.69
2016-12-06T08:54:50.512Z,1032.72
2016-12-06T08:55:16.080Z,1032.71
2016-12-06T08:55:41.643Z,1032.67
2016-12-06T08:56:07.223Z,1032.71
2016-12-06T08:56:32.793Z,1032.69
2016-12-06T08:56:58.427Z,1032.65
2016-12-06T08:57:24.000Z,1032.65
2016-12-06T08:57:49.554Z,1032.65
2016-12-06T08:58:15.112Z,1032.66
2016-12-06T08:58:40.660Z,1032.67
2016-12-06T08:59:06.226Z,1032.65
2016-12-06T08:59:31.785Z,1032.66
2016-12-06T08:59:57.341Z,1032.62
2016-12-06T09:00:22.941Z,1032.67
2016-12-06T09:00:48.506Z,1032.63
2016-12-06T09:01:14.104Z,1032.64
2016-12-06T09:01:39.647Z,1032.64
2016-12-06T09:02:05.232Z,1032.65
2016-12-06T09:02:30.859Z,1032.67
2016-12-06T09:02:56.441Z,1032.65
2016-12-06T09:03:22.005Z,1032.67
2016-12-06T09:03:47.571Z,1032.7
2016-12-06T09:04:13.136Z,1032.7
2016-12-06T09:04:38.701Z,1032.7
2016-12-06T09:05:04.247Z,1032.71
2016-12-06T09:05:29.823Z,1032.72
2016-12-06T09:05:55.433Z,1032.69
2016-12-06T09:06:20.993Z,1032.69
2016-12-06T09:06:46.553Z,1032.71
2016-12-06T09:07:12.228Z,1032.69
2016-12-06T09:07:37.773Z,1032.68
2016-12-06T09:08:03.526Z,1032.66
2016-12-06T09:08:29.103Z,1032.69
2016-12-06T09:08:54.658Z,1032.71
2016-12-06T09:09:20.234Z,1032.68
2016-12-06T09:09:45.798Z,1032.67
2016-12-06T09:10:11.391Z,1032.71
2016-12-06T09:10:36.962Z,1032.67
2016-12-06T09:11:02.540Z,1032.67
2016-12-06T09:11:28.121Z,1032.73
2016-12-06T09:11:53.677Z,1032.67
2016-12-06T09:12:19.352Z,1032.72
2016-12-06T09:12:44.908Z,1032.7
2016-12-06T09:13:10.460Z,1032.73
2016-12-06T09:13:36.025Z,1032.72
2016-12-06T09:14:01.607Z,1032.73
2016-12-06T09:14:27.170Z,1032.72
2016-12-06T09:14:52.741Z,1032.68
2016-12-06T09:15:18.293Z,1032.7
2016-12-06T09:15:43.849Z,1032.71
2016-12-06T09:16:09.386Z,1032.7
2016-12-06T09:16:34.933Z,1032.72
2016-12-06T09:17:00.491Z,1032.71
2016-12-06T09:17:26.064Z,1032.74
2016-12-06T09:17:51.616Z,1032.73
2016-12-06T09:18:17.299Z,1032.72
2016-12-06T09:18:42.908Z,1032.69
2016-12-06T09:19:08.471Z,1032.7
2016-12-06T09:19:34.064Z,1032.72
2016-12-06T09:19:59.591Z,1032.71
2016-12-06T09:20:25.132Z,1032.72
2016-12-06T09:20:50.699Z,1032.72
2016-12-06T09:21:16.240Z,1032.73
2016-12-06T09:21:41.815Z,1032.75
2016-12-06T09:22:07.386Z,1032.77
2016-12-06T09:22:32.940Z,1032.79
2016-12-06T09:22:58.539Z,1032.74
2016-12-06T09:23:24.168Z,1032.78
2016-12-06T09:23:49.746Z,1032.76
2016-12-06T09:24:15.292Z,1032.74
2016-12-06T09:24:40.844Z,1032.79
2016-12-06T09:25:06.400Z,1032.75
2016-12-06T09:25:31.936Z,1032.79